Airfield :
LOGIN :

Register | Disclaimer

   EN    FR    IT 

 










Legend :    VFR   Marginal VFR   IFR   Intensive IFR   Very Intensive IFR
Visi :
Ceiling :
>= 8 km
>= 3000ft
5 to 8 km
1000 to 3000 ft
1500m to 5 km
500 to 1000 ft
800 to 1500m
200 to 500 ft
< 800m
< 200 ft
Symbols :   Thunderstorms  Fog  Heavy snow  Heavy precipitations  Wind > 20 kt
SIGMETs :     Misc.  Thunderstorms  Icing  Turbulence  Mountain Waves  Volcanic Ashes







- Airport Elevation : 235 ft
- IATA code : BZG


EPBY - Bydgoszcz

CURRENT METAR :
  • 170230Z 09004KT 7000 OVC025 M02/M04 Q1018

EXPIRED METARs :
  • 170200Z 10005KT 7000 OVC022 M02/M04 Q1018 R26/590194
  • 170130Z 11005KT 7000 OVC023 M02/M04 Q1018 R26/590194
  • 170100Z 11006KT 7000 OVC022 M02/M03 Q1018 R26/590194
  • 170030Z 12004KT 7000 OVC022 M02/M04 Q1018 R26/590194
  • 170000Z 12004KT 090V150 8000 OVC023 M02/M04 Q1018 R26/590194

TAF TAF EPBY
Valid from the 17 at 00:00 until the 18 at 00:00 UTC


162330Z 1700/1724 15005KT 7000 BKN025
PROB40 1702/1708 2000 BR
PROB40
TEMPO 1709/1720 3000 -SN BR BKN008
No reported NOTAMs for that airfield.



MET'MAP, your aeronautical weather chart ! - Copyright ORBIFLY December 2007 - Disclaimer

ORBIFLY MET'MAP TEAM :

Programming & Development : Alexandra Zaïnal
Concept & Development : Baudouin d'Aumeries
Co-Development & Prog : Marc-Olivier Méhu
Technical & hardware support : Manuel Goepfert

Contact : metmap@orbifly.com




SOURCES & CREDITS :

   NOAA